Time,TemperatureF,DewpointF,PressureIn,WindDirection,WindDirectionDegrees,WindSpeedMPH,WindSpeedGustMPH,Humidity,HourlyPrecipIn,Conditions,Clouds,dailyrainin,SoftwareType,DateUTC
2013-02-09 00:02:00,24.0,18.0,30.03,WNW,292,5.0,12.0,78,0.00,,,0.16,,2013-02-09 05:02:00,
2013-02-09 00:12:00,24.0,18.0,30.03,WNW,292,5.0,12.0,78,0.00,,,0.16,,2013-02-09 05:12:00,
2013-02-09 00:22:00,24.0,18.0,30.03,WNW,297,9.0,18.0,78,0.00,,,0.16,,2013-02-09 05:22:00,
2013-02-09 00:32:00,24.0,18.0,30.04,WNW,297,5.0,17.0,78,0.00,,,0.16,,2013-02-09 05:32:00,
2013-02-09 00:42:00,24.0,18.0,30.04,WNW,297,5.0,17.0,78,0.00,,,0.16,,2013-02-09 05:42:00,
2013-02-09 00:52:00,24.0,18.0,30.05,NW,312,6.0,14.0,78,0.00,,,0.16,,2013-02-09 05:52:00,
2013-02-09 01:02:00,24.0,18.0,30.05,WNW,301,7.0,14.0,78,0.00,,,0.16,,2013-02-09 06:02:00,
2013-02-09 01:11:00,24.0,18.0,30.05,WNW,301,7.0,14.0,78,0.00,,,0.16,,2013-02-09 06:11:00,
2013-02-09 01:21:00,24.0,18.0,30.05,NW,315,3.0,3.0,78,0.00,,,0.16,,2013-02-09 06:21:00,
2013-02-09 01:32:00,24.0,18.0,30.06,NNW,342,4.0,10.0,78,0.00,,,0.16,,2013-02-09 06:32:00,
2013-02-09 01:42:00,24.0,18.0,30.06,NNW,342,4.0,10.0,78,0.00,,,0.16,,2013-02-09 06:42:00,
2013-02-09 01:52:00,24.0,18.0,30.07,WNW,291,4.0,9.0,79,0.00,,,0.16,,2013-02-09 06:52:00,
2013-02-09 02:01:00,23.0,17.0,30.07,WNW,303,6.0,10.0,79,0.00,,,0.16,,2013-02-09 07:01:00,
2013-02-09 02:11:00,23.0,17.0,30.07,WNW,303,6.0,10.0,79,0.00,,,0.16,,2013-02-09 07:11:00,
2013-02-09 02:21:00,23.0,17.0,30.08,WNW,292,0.0,0.0,79,0.00,,,0.16,,2013-02-09 07:21:00,
2013-02-09 02:31:00,23.0,17.0,30.08,WNW,300,5.0,12.0,79,0.00,,,0.16,,2013-02-09 07:31:00,
2013-02-09 02:42:00,23.0,17.0,30.08,WNW,300,5.0,12.0,79,0.00,,,0.16,,2013-02-09 07:42:00,
2013-02-09 02:51:00,23.0,17.0,30.09,NW,313,2.0,12.0,79,0.00,,,0.16,,2013-02-09 07:51:00,
2013-02-09 03:01:00,23.0,17.0,30.09,WNW,301,3.0,12.0,79,0.00,,,0.16,,2013-02-09 08:01:00,
2013-02-09 03:11:00,23.0,17.0,30.09,WNW,301,3.0,12.0,79,0.00,,,0.16,,2013-02-09 08:11:00,
2013-02-09 03:21:00,23.0,17.0,30.10,WNW,292,1.0,3.0,79,0.00,,,0.16,,2013-02-09 08:21:00,
2013-02-09 03:32:00,23.0,17.0,30.11,West,267,4.0,10.0,79,0.00,,,0.16,,2013-02-09 08:32:00,
2013-02-09 03:42:00,23.0,17.0,30.11,West,267,4.0,10.0,79,0.00,,,0.16,,2013-02-09 08:42:00,
2013-02-09 03:52:00,23.0,17.0,30.12,WNW,284,1.0,10.0,79,0.00,,,0.16,,2013-02-09 08:52:00,
2013-02-09 04:03:00,23.0,17.0,30.12,West,277,1.0,6.0,79,0.00,,,0.16,,2013-02-09 09:03:00,
2013-02-09 04:11:00,23.0,17.0,30.12,West,277,1.0,6.0,79,0.00,,,0.16,,2013-02-09 09:11:00,
2013-02-09 04:21:00,23.0,17.0,30.12,WSW,248,2.0,7.0,79,0.00,,,0.16,,2013-02-09 09:21:00,
2013-02-09 04:32:00,23.0,17.0,30.12,West,280,1.0,8.0,79,0.00,,,0.16,,2013-02-09 09:32:00,
2013-02-09 04:42:00,23.0,17.0,30.12,West,280,1.0,8.0,79,0.00,,,0.16,,2013-02-09 09:42:00,
2013-02-09 04:51:00,23.0,17.0,30.13,WNW,292,1.0,6.0,79,0.00,,,0.16,,2013-02-09 09:51:00,
2013-02-09 05:01:00,23.0,17.0,30.14,WNW,295,1.0,6.0,79,0.00,,,0.16,,2013-02-09 10:01:00,
2013-02-09 05:11:00,23.0,17.0,30.14,WNW,295,1.0,6.0,79,0.00,,,0.16,,2013-02-09 10:11:00,
2013-02-09 05:21:00,23.0,17.0,30.14,WNW,292,3.0,7.0,79,0.00,,,0.16,,2013-02-09 10:21:00,
2013-02-09 05:32:00,23.0,17.0,30.15,WNW,298,5.0,8.0,79,0.00,,,0.16,,2013-02-09 10:32:00,
2013-02-09 05:42:00,23.0,17.0,30.15,WNW,298,5.0,8.0,79,0.00,,,0.16,,2013-02-09 10:42:00,
2013-02-09 05:51:00,23.0,17.0,30.15,WNW,292,2.0,6.0,79,0.00,,,0.16,,2013-02-09 10:51:00,
2013-02-09 06:01:00,23.0,17.0,30.15,WNW,300,3.0,6.0,79,0.00,,,0.16,,2013-02-09 11:01:00,
2013-02-09 06:11:00,23.0,17.0,30.15,WNW,300,3.0,6.0,79,0.00,,,0.16,,2013-02-09 11:11:00,
2013-02-09 06:22:00,23.0,18.0,30.16,West,270,2.0,3.0,80,0.00,,,0.16,,2013-02-09 11:22:00,
2013-02-09 06:32:00,23.0,17.0,30.16,WNW,292,3.0,9.0,79,0.00,,,0.16,,2013-02-09 11:32:00,
2013-02-09 06:42:00,23.0,17.0,30.16,WNW,292,3.0,9.0,79,0.00,,,0.16,,2013-02-09 11:42:00,
2013-02-09 06:52:00,23.0,17.0,30.17,WNW,299,7.0,13.0,78,0.00,,,0.16,,2013-02-09 11:52:00,
2013-02-09 07:02:00,22.0,16.0,30.19,WNW,296,0.0,7.0,77,0.00,,,0.16,,2013-02-09 12:02:00,
2013-02-09 07:11:00,22.0,16.0,30.19,WNW,296,0.0,7.0,77,0.00,,,0.16,,2013-02-09 12:11:00,
2013-02-09 07:22:00,22.0,15.0,30.20,NW,315,1.0,8.0,75,0.00,,,0.16,,2013-02-09 12:22:00,
2013-02-09 07:32:00,22.0,15.0,30.20,WNW,292,3.0,10.0,75,0.00,,,0.16,,2013-02-09 12:32:00,
2013-02-09 07:42:00,22.0,15.0,30.20,WNW,292,3.0,10.0,75,0.00,,,0.16,,2013-02-09 12:42:00,
2013-02-09 07:52:00,22.0,15.0,30.21,West,270,1.0,7.0,75,0.00,,,0.16,,2013-02-09 12:52:00,
2013-02-09 08:02:00,22.0,15.0,30.21,North,0,0.0,3.0,75,0.00,,,0.16,,2013-02-09 13:02:00,
2013-02-09 08:11:00,22.0,15.0,30.21,North,0,0.0,3.0,75,0.00,,,0.16,,2013-02-09 13:11:00,
2013-02-09 08:22:00,22.0,15.0,30.22,NW,324,1.0,2.0,75,0.00,,,0.16,,2013-02-09 13:22:00,
2013-02-09 08:32:00,22.0,15.0,30.22,NW,315,1.0,5.0,75,0.00,,,0.16,,2013-02-09 13:32:00,
2013-02-09 08:42:00,22.0,15.0,30.22,NW,315,1.0,5.0,75,0.00,,,0.16,,2013-02-09 13:42:00,
2013-02-09 08:52:00,23.0,17.0,30.22,WNW,292,1.0,3.0,76,0.00,,,0.16,,2013-02-09 13:52:00,
2013-02-09 09:01:00,23.0,17.0,30.23,WNW,293,2.0,7.0,77,0.00,,,0.16,,2013-02-09 14:01:00,
2013-02-09 09:11:00,23.0,17.0,30.23,WNW,293,2.0,7.0,77,0.00,,,0.16,,2013-02-09 14:11:00,
2013-02-09 09:21:00,23.0,17.0,30.23,NW,313,2.0,5.0,76,0.00,,,0.16,,2013-02-09 14:21:00,
2013-02-09 09:32:00,23.0,16.0,30.23,WNW,292,3.0,8.0,74,0.00,,,0.16,,2013-02-09 14:32:00,
2013-02-09 09:42:00,23.0,16.0,30.23,WNW,292,3.0,8.0,74,0.00,,,0.16,,2013-02-09 14:42:00,
2013-02-09 09:52:00,23.0,16.0,30.24,NNW,348,0.0,5.0,74,0.00,,,0.16,,2013-02-09 14:52:00,
2013-02-09 10:02:00,23.0,16.0,30.24,North,0,0.0,5.0,73,0.00,,,0.16,,2013-02-09 15:02:00,
2013-02-09 10:11:00,23.0,16.0,30.24,North,0,0.0,5.0,73,0.00,,,0.16,,2013-02-09 15:11:00,
2013-02-09 10:22:00,24.0,16.0,30.24,NNE,22,0.0,6.0,72,0.00,,,0.16,,2013-02-09 15:22:00,
2013-02-09 10:32:00,24.0,16.0,30.24,NW,307,1.0,5.0,72,0.00,,,0.16,,2013-02-09 15:32:00,
2013-02-09 10:42:00,24.0,16.0,30.24,NW,307,1.0,5.0,72,0.00,,,0.16,,2013-02-09 15:42:00,
2013-02-09 10:51:00,24.0,16.0,30.24,North,8,1.0,7.0,71,0.00,,,0.14,,2013-02-09 15:51:00,
2013-02-09 11:01:00,24.0,16.0,30.25,WSW,237,1.0,6.0,71,0.00,,,0.12,,2013-02-09 16:01:00,
2013-02-09 11:11:00,24.0,16.0,30.25,WSW,237,1.0,6.0,71,0.00,,,0.12,,2013-02-09 16:11:00,
2013-02-09 11:22:00,25.0,17.0,30.25,WNW,292,1.0,9.0,70,0.00,,,0.10,,2013-02-09 16:22:00,
2013-02-09 11:32:00,26.0,18.0,30.25,NW,322,1.0,6.0,70,0.00,,,0.10,,2013-02-09 16:32:00,
2013-02-09 11:42:00,26.0,18.0,30.25,NW,322,1.0,6.0,70,0.00,,,0.10,,2013-02-09 16:42:00,
2013-02-09 11:52:00,26.0,17.0,30.25,North,4,1.0,6.0,69,0.00,,,0.06,,2013-02-09 16:52:00,
2013-02-09 12:01:00,26.0,17.0,30.25,NW,323,1.0,6.0,68,0.00,,,0.04,,2013-02-09 17:01:00,
2013-02-09 12:11:00,26.0,17.0,30.25,NW,323,1.0,6.0,68,0.00,,,0.04,,2013-02-09 17:11:00,
2013-02-09 12:21:00,26.0,17.0,30.24,WNW,297,1.0,6.0,68,0.00,,,0.04,,2013-02-09 17:21:00,
2013-02-09 12:32:00,27.0,18.0,30.24,NNW,338,0.0,8.0,68,0.00,,,0.02,,2013-02-09 17:32:00,
2013-02-09 12:42:00,27.0,18.0,30.24,NNW,338,0.0,8.0,68,0.00,,,0.02,,2013-02-09 17:42:00,
2013-02-09 12:52:00,27.0,18.0,30.24,WNW,289,1.0,8.0,67,0.00,,,0.02,,2013-02-09 17:52:00,
2013-02-09 13:02:00,28.0,18.0,30.24,NW,311,1.0,6.0,66,0.00,,,0.02,,2013-02-09 18:02:00,
2013-02-09 13:12:00,28.0,18.0,30.24,NW,311,1.0,6.0,66,0.00,,,0.02,,2013-02-09 18:12:00,
2013-02-09 13:23:00,28.0,18.0,30.23,WNW,283,1.0,7.0,65,0.02,,,0.04,,2013-02-09 18:23:00,
2013-02-09 13:32:00,28.0,18.0,30.22,WSW,241,2.0,6.0,65,0.02,,,0.02,,2013-02-09 18:32:00,
2013-02-09 13:42:00,28.0,18.0,30.22,WSW,241,2.0,6.0,65,0.02,,,0.02,,2013-02-09 18:42:00,
2013-02-09 13:52:00,29.0,19.0,30.22,WNW,285,1.0,5.0,65,0.02,,,0.02,,2013-02-09 18:52:00,
2013-02-09 14:01:00,29.0,19.0,30.22,WNW,292,0.0,0.0,65,0.02,,,0.02,,2013-02-09 19:01:00,
2013-02-09 14:11:00,29.0,19.0,30.22,WNW,292,0.0,0.0,65,0.02,,,0.02,,2013-02-09 19:11:00,
2013-02-09 14:22:00,30.0,20.0,30.22,SW,214,2.0,6.0,65,0.00,,,0.02,,2013-02-09 19:22:00,
2013-02-09 14:32:00,29.0,18.0,30.22,North,1,1.0,3.0,64,0.00,,,0.02,,2013-02-09 19:32:00,
2013-02-09 14:42:00,29.0,18.0,30.22,North,1,1.0,3.0,64,0.00,,,0.02,,2013-02-09 19:42:00,
2013-02-09 14:52:00,30.0,19.0,30.22,SSW,209,0.0,5.0,64,0.00,,,0.02,,2013-02-09 19:52:00,
2013-02-09 15:02:00,30.0,19.0,30.21,North,0,0.0,0.0,63,0.00,,,0.02,,2013-02-09 20:02:00,
2013-02-09 15:11:00,30.0,19.0,30.21,North,0,0.0,0.0,63,0.00,,,0.02,,2013-02-09 20:11:00,
2013-02-09 15:21:00,30.0,19.0,30.22,North,4,1.0,3.0,63,0.00,,,0.02,,2013-02-09 20:21:00,
2013-02-09 15:32:00,30.0,19.0,30.22,WNW,292,1.0,6.0,62,0.00,,,0.02,,2013-02-09 20:32:00,
2013-02-09 15:42:00,30.0,19.0,30.22,WNW,292,1.0,6.0,62,0.00,,,0.02,,2013-02-09 20:42:00,
2013-02-09 15:52:00,31.0,20.0,30.23,NW,312,0.0,1.0,62,0.00,,,0.02,,2013-02-09 20:52:00,
2013-02-09 16:02:00,31.0,20.0,30.23,WNW,292,0.0,0.0,62,0.00,,,0.02,,2013-02-09 21:02:00,
2013-02-09 16:12:00,31.0,20.0,30.23,WNW,292,0.0,0.0,62,0.00,,,0.02,,2013-02-09 21:12:00,
2013-02-09 16:21:00,31.0,19.0,30.23,WNW,292,0.0,1.0,61,0.00,,,0.02,,2013-02-09 21:21:00,
2013-02-09 16:32:00,31.0,19.0,30.23,West,270,0.0,0.0,61,0.00,,,0.02,,2013-02-09 21:32:00,
2013-02-09 16:42:00,31.0,19.0,30.23,West,270,0.0,0.0,61,0.00,,,0.02,,2013-02-09 21:42:00,
2013-02-09 16:52:00,31.0,19.0,30.24,West,270,0.0,2.0,61,0.00,,,0.02,,2013-02-09 21:52:00,
2013-02-09 17:01:00,31.0,19.0,30.24,West,264,0.0,0.0,60,0.00,,,0.02,,2013-02-09 22:01:00,
2013-02-09 17:11:00,31.0,19.0,30.24,West,264,0.0,0.0,60,0.00,,,0.02,,2013-02-09 22:11:00,
2013-02-09 17:21:00,31.0,19.0,30.24,WNW,292,0.0,1.0,60,0.00,,,0.02,,2013-02-09 22:21:00,
2013-02-09 17:32:00,31.0,19.0,30.25,WSW,248,0.0,0.0,61,0.00,,,0.02,,2013-02-09 22:32:00,
2013-02-09 17:42:00,31.0,19.0,30.25,WSW,248,0.0,0.0,61,0.00,,,0.02,,2013-02-09 22:42:00,
2013-02-09 17:52:00,30.0,18.0,30.26,WSW,248,0.0,0.0,60,0.00,,,0.02,,2013-02-09 22:52:00,
2013-02-09 18:02:00,29.0,17.0,30.25,WSW,248,0.0,0.0,61,0.00,,,0.02,,2013-02-09 23:02:00,
2013-02-09 18:11:00,29.0,17.0,30.25,WSW,248,0.0,0.0,61,0.00,,,0.02,,2013-02-09 23:11:00,
2013-02-09 18:21:00,29.0,17.0,30.25,West,270,0.0,0.0,61,0.00,,,0.02,,2013-02-09 23:21:00,
2013-02-09 18:32:00,29.0,18.0,30.25,West,270,0.0,0.0,62,0.00,,,0.02,,2013-02-09 23:32:00,
2013-02-09 18:42:00,29.0,18.0,30.25,West,270,0.0,0.0,62,0.00,,,0.02,,2013-02-09 23:42:00,
2013-02-09 18:52:00,28.0,17.0,30.25,West,270,0.0,0.0,62,0.00,,,0.02,,2013-02-09 23:52:00,
2013-02-09 19:02:00,28.0,17.0,30.25,West,270,0.0,0.0,63,0.00,,,0.02,,2013-02-10 00:02:00,
2013-02-09 19:12:00,28.0,17.0,30.25,West,270,0.0,0.0,63,0.00,,,0.02,,2013-02-10 00:12:00,
2013-02-09 19:22:00,28.0,17.0,30.25,West,270,0.0,0.0,63,0.00,,,0.02,,2013-02-10 00:22:00,
2013-02-09 19:32:00,27.0,16.0,30.24,West,270,0.0,0.0,64,0.00,,,0.02,,2013-02-10 00:32:00,
2013-02-09 19:42:00,27.0,16.0,30.24,West,270,0.0,0.0,64,0.00,,,0.02,,2013-02-10 00:42:00,
2013-02-09 19:51:00,26.0,16.0,30.25,West,270,0.0,0.0,65,0.00,,,0.02,,2013-02-10 00:51:00,
2013-02-09 20:01:00,26.0,16.0,30.25,West,270,0.0,0.0,66,0.00,,,0.02,,2013-02-10 01:01:00,
2013-02-09 20:12:00,26.0,16.0,30.25,West,270,0.0,0.0,66,0.00,,,0.02,,2013-02-10 01:12:00,
2013-02-09 20:21:00,26.0,16.0,30.25,West,270,0.0,0.0,66,0.00,,,0.02,,2013-02-10 01:21:00,
2013-02-09 20:32:00,26.0,16.0,30.26,West,270,0.0,0.0,66,0.00,,,0.02,,2013-02-10 01:32:00,
2013-02-09 20:42:00,26.0,16.0,30.26,West,270,0.0,0.0,66,0.00,,,0.02,,2013-02-10 01:42:00,
2013-02-09 20:51:00,25.0,16.0,30.26,West,270,0.0,0.0,67,0.00,,,0.02,,2013-02-10 01:51:00,
2013-02-09 21:01:00,25.0,16.0,30.25,West,270,0.0,0.0,68,0.00,,,0.02,,2013-02-10 02:01:00,
2013-02-09 21:11:00,25.0,16.0,30.25,West,270,0.0,0.0,68,0.00,,,0.02,,2013-02-10 02:11:00,
2013-02-09 21:22:00,24.0,15.0,30.25,West,270,0.0,0.0,68,0.00,,,0.02,,2013-02-10 02:22:00,
2013-02-09 21:32:00,24.0,15.0,30.25,West,270,0.0,0.0,68,0.00,,,0.02,,2013-02-10 02:32:00,
2013-02-09 21:42:00,24.0,15.0,30.25,West,270,0.0,0.0,68,0.00,,,0.02,,2013-02-10 02:42:00,
2013-02-09 21:52:00,24.0,15.0,30.25,West,270,0.0,0.0,69,0.00,,,0.02,,2013-02-10 02:52:00,
2013-02-09 22:02:00,23.0,14.0,30.26,West,270,0.0,0.0,69,0.00,,,0.02,,2013-02-10 03:02:00,
2013-02-09 22:11:00,23.0,14.0,30.26,West,270,0.0,0.0,69,0.00,,,0.02,,2013-02-10 03:11:00,
2013-02-09 22:21:00,23.0,14.0,30.26,West,270,0.0,0.0,69,0.00,,,0.02,,2013-02-10 03:21:00,
2013-02-09 22:32:00,22.0,14.0,30.26,West,270,0.0,0.0,70,0.00,,,0.02,,2013-02-10 03:32:00,
2013-02-09 22:42:00,22.0,14.0,30.26,West,270,0.0,0.0,70,0.00,,,0.02,,2013-02-10 03:42:00,
2013-02-09 22:51:00,22.0,14.0,30.26,West,270,0.0,0.0,70,0.00,,,0.02,,2013-02-10 03:51:00,
2013-02-09 23:01:00,21.0,13.0,30.26,West,270,0.0,0.0,70,0.00,,,0.02,,2013-02-10 04:01:00,
2013-02-09 23:11:00,21.0,13.0,30.26,West,270,0.0,0.0,70,0.00,,,0.02,,2013-02-10 04:11:00,
2013-02-09 23:21:00,20.0,12.0,30.26,West,270,0.0,0.0,71,0.00,,,0.02,,2013-02-10 04:21:00,
2013-02-09 23:32:00,20.0,12.0,30.25,West,270,0.0,0.0,71,0.00,,,0.02,,2013-02-10 04:32:00,
2013-02-09 23:42:00,20.0,12.0,30.25,West,270,0.0,0.0,71,0.00,,,0.02,,2013-02-10 04:42:00,
2013-02-09 23:52:00,20.0,12.0,30.25,West,270,0.0,0.0,71,0.00,,,0.02,,2013-02-10 04:52:00,